Oberon — SKJF — position and weather

sailwx.info

Track history (hours):
 
Tides and Currents Weather Stations Pressure Air Temp Water Temp Dewpoint Dewpoint Depression Visibility Wind Speed Wind Dir Waves Ship Positions

Oberon

Last reported at 2014-Oct-30 12:33 UTC. Time now 2014-Oct-30 12:54 UTC.
Position N 33°41' W 118°11'.

Length 232 m; draft 10.8 m.

Type: Cargo ship. MMSI: 266283000.

Date/timePositionNaut miles runAvg speedWind from/ knotsBaromVisibWave heightAir tempDewpointWater temp
2014-Oct-30 12:33N 33°41' W 118°11'7 6.8
2014-Oct-30 11:33N 33°36' W 118°16'9 8.9
2014-Oct-30 10:33N 33°36' W 118°27'9 9.3
2014-Oct-30 09:33N 33°37' W 118°38'9 9.2
2014-Oct-30 08:33N 33°38' W 118°49'9 9.3
2014-Oct-30 07:33N 33°38' W 118°60'9 9.1
2014-Oct-30 06:33N 33°40' W 119°11'9 9.4
2014-Oct-30 05:33N 33°41' W 119°22'1010.0
2014-Oct-30 04:33N 33°43' W 119°34'10 9.9
2014-Oct-30 03:33N 33°44' W 119°45'1010.1
2014-Oct-30 02:33N 33°44' W 119°58'2412.2
2014-Oct-30 00:33N 33°43' W 120°27'1413.6
2014-Oct-29 23:33N 33°41' W 120°43'1414.1
2014-Oct-29 22:33N 33°40' W 121°00'1514.6
2014-Oct-29 21:33N 33°39' W 121°17'1515.5
2014-Oct-29 20:33N 33°37' W 121°36'1515.3
2014-Oct-29 19:33N 33°36' W 121°54'1715.1
2014-Oct-29 18:26N 33°34' W 122°15'1315.0
2014-Oct-29 17:33N 33°34' W 122°30'4615.0
2014-Oct-29 14:30N 33°36' W 123°25'1415.0
2014-Oct-29 13:33N 33°37' W 123°42'1915.2
2014-Oct-29 12:18N 33°38' W 124°05'1215.1
2014-Oct-29 11:30N 33°38' W 124°20'1414.5
2014-Oct-29 10:33N 33°42' W 124°36'1515.3
2014-Oct-29 09:33N 33°51' W 124°50'3115.2
2014-Oct-29 07:31N 34°10' W 125°20'1514.9
2014-Oct-29 06:33N 34°18' W 125°35'4615.4
2014-Oct-29 03:31N 34°46' W 126°20'1515.4
2014-Oct-29 02:33N 34°54' W 126°35'4715.7
2014-Oct-28 23:32N 35°21' W 127°22'  
Track history (hours):
 
Tides and Currents Weather Stations Pressure Air Temp Water Temp Dewpoint Dewpoint Depression Visibility Wind Speed Wind Dir Waves Ship Positions

Oberon

Last reported at 2014-Oct-30 12:33 UTC. Time now 2014-Oct-30 12:54 UTC.
Position N 33°41' W 118°11'.

Length 232 m; draft 10.8 m.

Type: Cargo ship. MMSI: 266283000.

Date/timePositionNaut miles runAvg speedWind from/ knotsBaromVisibWave heightAir tempDewpointWater temp
2014-Oct-30 12:33N 33°41' W 118°11'7 6.8
2014-Oct-30 11:33N 33°36' W 118°16'9 8.9
2014-Oct-30 10:33N 33°36' W 118°27'9 9.3
2014-Oct-30 09:33N 33°37' W 118°38'9 9.2
2014-Oct-30 08:33N 33°38' W 118°49'9 9.3
2014-Oct-30 07:33N 33°38' W 118°60'9 9.1
2014-Oct-30 06:33N 33°40' W 119°11'9 9.4
2014-Oct-30 05:33N 33°41' W 119°22'1010.0
2014-Oct-30 04:33N 33°43' W 119°34'10 9.9
2014-Oct-30 03:33N 33°44' W 119°45'1010.1
2014-Oct-30 02:33N 33°44' W 119°58'2412.2
2014-Oct-30 00:33N 33°43' W 120°27'1413.6
2014-Oct-29 23:33N 33°41' W 120°43'1414.1
2014-Oct-29 22:33N 33°40' W 121°00'1514.6
2014-Oct-29 21:33N 33°39' W 121°17'1515.5
2014-Oct-29 20:33N 33°37' W 121°36'1515.3
2014-Oct-29 19:33N 33°36' W 121°54'1715.1
2014-Oct-29 18:26N 33°34' W 122°15'1315.0
2014-Oct-29 17:33N 33°34' W 122°30'4615.0
2014-Oct-29 14:30N 33°36' W 123°25'1415.0
2014-Oct-29 13:33N 33°37' W 123°42'1915.2
2014-Oct-29 12:18N 33°38' W 124°05'1215.1
2014-Oct-29 11:30N 33°38' W 124°20'1414.5
2014-Oct-29 10:33N 33°42' W 124°36'1515.3
2014-Oct-29 09:33N 33°51' W 124°50'3115.2
2014-Oct-29 07:31N 34°10' W 125°20'1514.9
2014-Oct-29 06:33N 34°18' W 125°35'4615.4
2014-Oct-29 03:31N 34°46' W 126°20'1515.4
2014-Oct-29 02:33N 34°54' W 126°35'4715.7
2014-Oct-28 23:32N 35°21' W 127°22'  

Dump ship's entire track history